Time;durP1;ratioP1;P1;durP2;ratioP2;P2;SDS_P1;SDS_P2;PMS_P1;PMS_P2;Temp;Humidity;BMP_temperature;BMP_pressure;BME280_temperature;BME280_humidity;BME280_pressure;Samples;Min_cycle;Max_cycle;Signal;HPM_P1;HPM_P2
2022/12/17 13:06:06;;;;;;;;;;;;;;;3.54;57.15;102586.25;5009182;28;115347;-69
2022/12/17 13:08:33;;;;;;;;;;;;;;;3.51;57.07;102581.84;4996354;28;115493;-69
2022/12/17 13:11:19;;;;;;;;;;;;;;;3.50;57.13;102580.09;5007407;28;125230;-68
2022/12/17 13:13:54;;;;;;;;;;;;;;;3.51;57.25;102581.84;5007432;28;122859;-68
2022/12/17 13:16:30;;;;;;;;;;;;;;;3.53;57.26;102574.03;5001029;28;114440;-70
2022/12/17 13:19:02;;;;;;;;;;;;;;;3.50;57.01;102575.75;4987499;28;114297;-68
2022/12/17 13:21:30;;;;;;;;;;;;;;;3.45;56.91;102576.56;4991980;28;124773;-68
2022/12/17 13:23:57;;;;;;;;;;;;;;;3.40;56.88;102573.00;5000141;28;123929;-68
2022/12/17 13:26:42;;;;;;;;;;;;;;;3.38;57.00;102572.09;4994491;28;114285;-68
2022/12/17 13:29:10;;;;;;;;;;;;;;;3.34;57.13;102575.53;5002281;28;112684;-68
2022/12/17 13:31:46;;;;;;;;;;;;;;;3.31;57.09;102579.88;5001438;28;126406;-68
2022/12/17 13:34:19;;;;;;;;;;;;;;;3.30;57.18;102572.88;5009077;28;123975;-69
2022/12/17 13:36:45;;;;;;;;;;;;;;;3.29;57.13;102570.22;4987714;28;113887;-69
2022/12/17 13:39:18;;;;;;;;;;;;;;;3.25;57.10;102569.31;4999664;28;113633;-70
2022/12/17 13:41:45;;;;;;;;;;;;;;;3.26;57.16;102581.56;4999814;28;124242;-69
2022/12/17 13:44:20;;;;;;;;;;;;;;;3.28;57.20;102571.97;5005088;28;125460;-69
2022/12/17 13:46:48;;;;;;;;;;;;;;;3.28;57.38;102574.59;5007465;28;113394;-69
2022/12/17 13:49:17;;;;;;;;;;;;;;;3.27;57.08;102572.81;5002339;28;113894;-69
2022/12/17 13:51:44;;;;;;;;;;;;;;;3.26;57.16;102573.69;5002413;28;124107;-69
2022/12/17 13:54:14;;;;;;;;;;;;;;;3.24;57.30;102572.78;5000521;28;124054;-68
2022/12/17 13:56:41;;;;;;;;;;;;;;;3.25;57.22;102579.78;5000740;28;115546;-69
2022/12/17 13:59:19;;;;;;;;;;;;;;;3.26;57.24;102581.56;5008361;28;115279;-69
2022/12/17 14:01:48;;;;;;;;;;;;;;;3.26;57.42;102581.56;4994901;28;124353;-69
2022/12/17 14:04:19;;;;;;;;;;;;;;;3.28;57.40;102573.72;5008186;28;124383;-70
2022/12/17 14:06:47;;;;;;;;;;;;;;;3.28;57.33;102573.72;5003854;28;114500;-68
2022/12/17 14:09:18;;;;;;;;;;;;;;;3.27;57.09;102583.28;5006655;28;113644;-69
2022/12/17 14:14:34;;;;;;;;;;;;;;;3.22;57.21;102564.03;4999007;28;124340;-69
2022/12/17 14:17:03;;;;;;;;;;;;;;;3.22;57.26;102574.53;5001066;28;113581;-70
2022/12/17 14:19:32;;;;;;;;;;;;;;;3.23;57.43;102584.13;5005079;28;113888;-69
2022/12/17 14:21:59;;;;;;;;;;;;;;;3.25;57.28;102595.47;5003740;28;123473;-69
2022/12/17 14:24:28;;;;;;;;;;;;;;;3.24;57.10;102593.75;5007400;28;124362;-69
2022/12/17 14:26:56;;;;;;;;;;;;;;;3.22;56.99;102595.47;4988592;28;113465;-69
2022/12/17 14:29:25;;;;;;;;;;;;;;;3.18;57.20;102606.72;5005711;28;113352;-69
2022/12/17 14:31:53;;;;;;;;;;;;;;;3.14;57.02;102604.94;5019169;28;123707;-68
2022/12/17 14:34:20;;;;;;;;;;;;;;;3.12;57.03;102601.41;5008365;28;124635;-70
2022/12/17 14:36:52;;;;;;;;;;;;;;;3.11;57.21;102604.91;5003717;28;114080;-69
2022/12/17 14:39:23;;;;;;;;;;;;;;;3.10;57.15;102605.75;4993643;28;113838;-70
2022/12/17 14:44:39;;;;;;;;;;;;;;;3.10;57.47;102610.97;4998015;28;124310;-69
2022/12/17 14:47:17;;;;;;;;;;;;;;;3.11;57.21;102607.53;5009888;28;115625;-70
2022/12/17 14:49:57;;;;;;;;;;;;;;;3.12;57.48;102609.25;5013210;28;114903;-69
2022/12/17 14:52:26;;;;;;;;;;;;;;;3.12;57.48;102609.25;5010848;28;124647;-67
2022/12/17 14:54:54;;;;;;;;;;;;;;;3.12;57.12;102615.38;5000834;28;124338;-68
2022/12/17 14:57:21;;;;;;;;;;;;;;;3.12;57.18;102615.38;5017995;28;114469;-67
2022/12/17 14:59:49;;;;;;;;;;;;;;;3.12;57.30;102624.97;5001467;28;113720;-67
2022/12/17 15:02:16;;;;;;;;;;;;;;;3.10;57.01;102616.22;5007091;28;124168;-67
2022/12/17 15:04:43;;;;;;;;;;;;;;;3.08;57.16;102623.16;5008986;28;123910;-67
2022/12/17 15:07:13;;;;;;;;;;;;;;;3.04;56.93;102626.59;5010743;28;114585;-67
2022/12/17 15:09:44;;;;;;;;;;;;;;;2.98;56.83;102634.38;5004843;28;112813;-67
2022/12/17 15:12:11;;;;;;;;;;;;;;;2.91;56.84;102636.88;5012683;28;124144;-67
2022/12/17 15:14:38;;;;;;;;;;;;;;;2.85;56.98;102631.56;5009604;28;123178;-67
2022/12/17 15:17:05;;;;;;;;;;;;;;;2.80;57.05;102625.34;5020670;28;113524;-67
2022/12/17 15:19:32;;;;;;;;;;;;;;;2.78;57.14;102629.69;5016071;28;113335;-67
2022/12/17 15:21:59;;;;;;;;;;;;;;;2.78;56.95;102629.69;5016536;28;123692;-67
2022/12/17 15:24:26;;;;;;;;;;;;;;;2.79;57.03;102646.25;5016498;28;123615;-67
2022/12/17 15:26:53;;;;;;;;;;;;;;;2.77;57.15;102643.66;5012464;28;116044;-67
2022/12/17 15:29:20;;;;;;;;;;;;;;;2.77;57.39;102643.66;5009359;28;113689;-67
2022/12/17 15:31:47;;;;;;;;;;;;;;;2.78;57.10;102649.75;5009134;28;125104;-67
2022/12/17 15:34:15;;;;;;;;;;;;;;;2.76;57.13;102641.88;5008940;28;124466;-67
2022/12/17 15:36:42;;;;;;;;;;;;;;;2.76;57.30;102652.34;5010223;28;116319;-67
2022/12/17 15:39:09;;;;;;;;;;;;;;;2.75;57.11;102650.59;5006211;28;115216;-67
2022/12/17 15:44:21;;;;;;;;;;;;;;;2.68;57.00;102659.19;5006485;28;124154;-67
2022/12/17 15:46:48;;;;;;;;;;;;;;;2.65;57.23;102664.34;5006600;28;114291;-67
2022/12/17 15:49:15;;;;;;;;;;;;;;;2.62;57.10;102659.06;5010636;28;113494;-67
2022/12/17 15:51:42;;;;;;;;;;;;;;;2.59;57.19;102659.03;5006293;28;125748;-67
2022/12/17 15:54:09;;;;;;;;;;;;;;;2.57;57.03;102660.72;5005976;28;123482;-67
2022/12/17 15:56:36;;;;;;;;;;;;;;;2.55;57.30;102662.44;5008754;28;114601;-67
2022/12/17 15:59:03;;;;;;;;;;;;;;;2.56;57.27;102669.41;5007886;28;113693;-67
2022/12/17 16:01:29;;;;;;;;;;;;;;;2.53;57.09;102668.50;5007040;28;124091;-67
2022/12/17 16:03:56;;;;;;;;;;;;;;;2.50;57.02;102675.41;5009725;28;124816;-67
2022/12/17 16:06:23;;;;;;;;;;;;;;;2.45;56.89;102667.50;5009450;28;114550;-67
2022/12/17 16:08:50;;;;;;;;;;;;;;;2.43;57.02;102674.44;5007538;28;114531;-66
2022/12/17 16:11:17;;;;;;;;;;;;;;;2.38;57.00;102686.53;5009581;28;124846;-67
2022/12/17 16:13:44;;;;;;;;;;;;;;;2.34;57.07;102684.72;5009172;28;124788;-67
2022/12/17 16:16:11;;;;;;;;;;;;;;;2.30;57.24;102672.47;5005270;28;114530;-67
2022/12/17 16:18:38;;;;;;;;;;;;;;;2.28;57.25;102684.59;5008874;28;113487;-67
2022/12/17 16:21:06;;;;;;;;;;;;;;;2.25;57.17;102687.16;5005946;28;124221;-67
2022/12/17 16:23:34;;;;;;;;;;;;;;;2.19;57.12;102679.22;5008649;28;123904;-67
2022/12/17 16:26:01;;;;;;;;;;;;;;;2.14;56.98;102676.50;5009936;28;115237;-67
2022/12/17 16:28:28;;;;;;;;;;;;;;;2.11;57.02;102681.66;5005391;28;114227;-67
2022/12/17 16:31:03;;;;;;;;;;;;;;;2.07;57.17;102680.75;5002523;28;125148;-67
2022/12/17 16:33:31;;;;;;;;;;;;;;;2.07;57.25;102682.44;5007903;28;123537;-67
2022/12/17 16:36:02;;;;;;;;;;;;;;;2.02;57.01;102686.72;5006631;28;114262;-67
2022/12/17 16:38:29;;;;;;;;;;;;;;;1.97;57.15;102699.69;5007336;28;113641;-67
2022/12/17 16:40:57;;;;;;;;;;;;;;;1.92;57.07;102685.63;5006131;28;124032;-67
2022/12/17 16:43:25;;;;;;;;;;;;;;;1.86;56.91;102685.50;5008714;28;124823;-67
2022/12/17 16:45:52;;;;;;;;;;;;;;;1.81;57.14;102676.69;5005072;28;114925;-68
2022/12/17 16:48:20;;;;;;;;;;;;;;;1.79;57.18;102683.63;5007952;28;113523;-67
2022/12/17 16:50:47;;;;;;;;;;;;;;;1.77;57.20;102685.31;5002895;28;123957;-67
2022/12/17 16:53:14;;;;;;;;;;;;;;;1.74;57.22;102684.41;5008019;28;124398;-67
2022/12/17 16:55:42;;;;;;;;;;;;;;;1.75;57.33;102694.03;5009075;28;114566;-67
2022/12/17 16:58:12;;;;;;;;;;;;;;;1.77;57.24;102685.31;5005324;28;113893;-67
2022/12/17 17:00:40;;;;;;;;;;;;;;;1.78;57.35;102681.88;5007411;28;124058;-67
2022/12/17 17:03:07;;;;;;;;;;;;;;;1.74;57.14;102679.19;5007793;28;125442;-67
2022/12/17 17:05:37;;;;;;;;;;;;;;;1.70;57.05;102685.19;5007560;28;114538;-67
2022/12/17 17:08:04;;;;;;;;;;;;;;;1.68;57.04;102692.13;5008495;28;113954;-66
2022/12/17 17:10:33;;;;;;;;;;;;;;;1.64;57.08;102690.28;5010177;28;124779;-67
2022/12/17 17:13:00;;;;;;;;;;;;;;;1.60;57.11;102690.19;4993493;28;125724;-67
2022/12/17 17:15:27;;;;;;;;;;;;;;;1.57;57.00;102698.84;5001835;28;114976;-67
2022/12/17 17:17:54;;;;;;;;;;;;;;;1.55;57.09;102695.31;5009103;28;114398;-67
2022/12/17 17:20:30;;;;;;;;;;;;;;;1.56;57.40;102697.06;4998822;28;123961;-67
2022/12/17 17:22:58;;;;;;;;;;;;;;;1.55;57.19;102695.31;5003952;28;123970;-67
2022/12/17 17:25:25;;;;;;;;;;;;;;;1.57;57.32;102703.19;5009280;28;114577;-67
2022/12/17 17:28:12;;;;;;;;;;;;;;;1.57;57.17;102701.44;5009204;28;114585;-66
2022/12/17 17:30:39;;;;;;;;;;;;;;;1.55;57.18;102700.53;5023702;28;123476;-67
2022/12/17 17:33:07;;;;;;;;;;;;;;;1.55;57.28;102690.09;5008361;28;124454;-67
2022/12/17 17:35:34;;;;;;;;;;;;;;;1.56;57.15;102697.06;5005340;28;114746;-67
2022/12/17 17:38:01;;;;;;;;;;;;;;;1.54;57.05;102696.16;5002070;28;113897;-66
2022/12/17 17:40:28;;;;;;;;;;;;;;;1.53;57.27;102697.00;5007163;28;124477;-67
2022/12/17 17:42:55;;;;;;;;;;;;;;;1.53;57.25;102697.00;5008320;28;123902;-67
2022/12/17 17:45:21;;;;;;;;;;;;;;;1.54;57.24;102703.97;5006060;28;115910;-67
2022/12/17 17:47:48;;;;;;;;;;;;;;;1.54;57.26;102703.97;5007069;28;113446;-67
2022/12/17 17:50:15;;;;;;;;;;;;;;;1.52;57.03;102690.00;5006059;28;124806;-67
2022/12/17 17:52:42;;;;;;;;;;;;;;;1.51;57.32;102693.50;5005220;28;124108;-67
2022/12/17 17:55:09;;;;;;;;;;;;;;;1.51;57.38;102696.09;5006295;28;115001;-67
2022/12/17 17:57:36;;;;;;;;;;;;;;;1.51;57.17;102698.72;5003802;28;114665;-67
2022/12/17 18:00:03;;;;;;;;;;;;;;;1.51;57.28;102709.16;5007267;28;124298;-67
2022/12/17 18:02:31;;;;;;;;;;;;;;;1.51;57.45;102714.38;5008155;28;124793;-67
2022/12/17 18:04:58;;;;;;;;;;;;;;;1.52;57.38;102713.50;5006492;28;114489;-68
2022/12/17 18:07:25;;;;;;;;;;;;;;;1.52;57.22;102716.13;4999591;28;113505;-67
2022/12/17 18:09:53;;;;;;;;;;;;;;;1.52;57.35;102726.56;5007745;28;124586;-66
2022/12/17 18:15:06;;;;;;;;;;;;;;;1.52;57.38;102726.56;4999572;28;115133;-67
2022/12/17 18:17:44;;;;;;;;;;;;;;;1.53;57.54;102736.19;4999693;28;114081;-67
2022/12/17 18:20:11;;;;;;;;;;;;;;;1.53;57.41;102733.56;4995136;28;124818;-68
2022/12/17 18:22:38;;;;;;;;;;;;;;;1.55;57.32;102734.47;5000442;28;123945;-67
2022/12/17 18:25:05;;;;;;;;;;;;;;;1.56;57.23;102738.84;5000770;28;114780;-66
2022/12/17 18:27:32;;;;;;;;;;;;;;;1.54;57.28;102730.09;5000426;28;113421;-66
2022/12/17 18:29:59;;;;;;;;;;;;;;;1.53;57.29;102738.78;4998628;28;124252;-67
2022/12/17 18:32:26;;;;;;;;;;;;;;;1.54;57.33;102732.69;4999483;28;124091;-66
2022/12/17 18:34:53;;;;;;;;;;;;;;;1.55;57.44;102732.75;5002840;28;114337;-68
2022/12/17 18:37:22;;;;;;;;;;;;;;;1.55;57.26;102735.34;5001459;28;114285;-67
2022/12/17 18:39:49;;;;;;;;;;;;;;;1.52;57.25;102731.78;5000721;28;126012;-66
2022/12/17 18:45:02;;;;;;;;;;;;;;;1.50;57.29;102723.03;5001949;28;114703;-68
2022/12/17 18:47:29;;;;;;;;;;;;;;;1.48;57.14;102729.97;5001373;28;113781;-66
2022/12/17 18:49:56;;;;;;;;;;;;;;;1.46;57.05;102731.66;4999459;28;125112;-66
2022/12/17 18:52:23;;;;;;;;;;;;;;;1.40;56.87;102736.75;4996910;28;125096;-67
2022/12/17 18:54:50;;;;;;;;;;;;;;;1.33;56.96;102730.47;4997600;28;116613;-66
2022/12/17 18:57:17;;;;;;;;;;;;;;;1.26;57.06;102726.84;4997591;28;115033;-66
2022/12/17 18:59:44;;;;;;;;;;;;;;;1.23;57.17;102738.94;4998889;28;126107;-66
2022/12/17 19:02:11;;;;;;;;;;;;;;;1.17;57.24;102726.63;5003385;28;124000;-67
2022/12/17 19:04:39;;;;;;;;;;;;;;;1.16;57.31;102732.69;5000075;28;113459;-66
2022/12/17 19:07:06;;;;;;;;;;;;;;;1.16;57.36;102730.06;5006168;28;113923;-66
2022/12/17 19:09:34;;;;;;;;;;;;;;;1.16;57.17;102732.69;5006133;28;124260;-67
2022/12/17 19:12:05;;;;;;;;;;;;;;;1.14;57.09;102735.25;5003718;28;124077;-67
2022/12/17 19:14:32;;;;;;;;;;;;;;;1.09;57.03;102736.88;4998405;28;114558;-67
2022/12/17 19:16:59;;;;;;;;;;;;;;;1.02;57.00;102734.06;5003444;28;113947;-66
2022/12/17 19:19:26;;;;;;;;;;;;;;;0.96;57.06;102740.91;5015412;28;124624;-67
2022/12/17 19:21:54;;;;;;;;;;;;;;;0.93;57.15;102735.59;5002614;28;122978;-67
2022/12/17 19:24:21;;;;;;;;;;;;;;;0.92;57.15;102744.28;4999667;28;114183;-67
2022/12/17 19:26:48;;;;;;;;;;;;;;;0.86;57.19;102744.09;5000506;28;112969;-66
2022/12/17 19:29:16;;;;;;;;;;;;;;;0.82;56.98;102752.72;4999758;28;125170;-66
2022/12/17 19:31:44;;;;;;;;;;;;;;;0.78;57.02;102756.09;5003334;28;125322;-66
2022/12/17 19:34:12;;;;;;;;;;;;;;;0.77;57.27;102752.59;4999362;28;115195;-67
2022/12/17 19:36:39;;;;;;;;;;;;;;;0.79;57.51;102763.03;4998512;28;113787;-67
2022/12/17 19:39:09;;;;;;;;;;;;;;;0.82;57.39;102768.34;4995019;28;124100;-66
2022/12/17 19:41:36;;;;;;;;;;;;;;;0.81;57.52;102769.22;4999708;28;124930;-66
2022/12/17 19:44:04;;;;;;;;;;;;;;;0.81;57.26;102764.00;5008639;28;116572;-66
2022/12/17 19:46:33;;;;;;;;;;;;;;;0.82;57.29;102773.56;5005820;28;114839;-66
2022/12/17 19:49:00;;;;;;;;;;;;;;;0.78;57.23;102771.72;5004475;28;124407;-66
2022/12/17 19:51:29;;;;;;;;;;;;;;;0.73;57.17;102762.88;5011085;28;122662;-67
2022/12/17 19:53:56;;;;;;;;;;;;;;;0.70;57.24;102765.44;5007145;28;113232;-67
2022/12/17 19:56:30;;;;;;;;;;;;;;;0.70;57.25;102762.84;5004332;28;113040;-66
2022/12/17 19:59:01;;;;;;;;;;;;;;;0.67;57.33;102760.13;4997836;28;123664;-66
2022/12/17 20:01:33;;;;;;;;;;;;;;;0.65;57.22;102761.81;5009822;28;124674;-66
2022/12/17 20:04:00;;;;;;;;;;;;;;;0.61;57.31;102753.03;5010685;28;114609;-65
2022/12/17 20:06:28;;;;;;;;;;;;;;;0.61;57.47;102767.78;5007435;28;113185;-66
2022/12/17 20:08:57;;;;;;;;;;;;;;;0.62;57.42;102761.72;5009962;28;125734;-66
2022/12/17 20:11:33;;;;;;;;;;;;;;;0.64;57.52;102758.34;5006334;28;126050;-66
2022/12/17 20:14:00;;;;;;;;;;;;;;;0.66;57.60;102755.75;5005630;28;114929;-66
2022/12/17 20:16:27;;;;;;;;;;;;;;;0.70;57.44;102762.84;5007036;28;113701;-65
2022/12/17 20:18:55;;;;;;;;;;;;;;;0.73;57.43;102770.72;5001048;28;123851;-65
2022/12/17 20:21:21;;;;;;;;;;;;;;;0.76;57.53;102774.28;5007770;28;124251;-66
2022/12/17 20:23:49;;;;;;;;;;;;;;;0.80;57.54;102770.03;5014307;28;115393;-66
2022/12/17 20:26:16;;;;;;;;;;;;;;;0.83;57.40;102775.34;5011061;28;113900;-66
2022/12/17 20:28:44;;;;;;;;;;;;;;;0.85;57.45;102776.28;5005195;28;124431;-66
2022/12/17 20:31:11;;;;;;;;;;;;;;;0.85;57.58;102778.88;5002023;28;124040;-66
2022/12/17 20:33:38;;;;;;;;;;;;;;;0.85;57.41;102776.28;5008959;28;115153;-66
2022/12/17 20:36:09;;;;;;;;;;;;;;;0.83;57.34;102780.56;5005327;28;114832;-65
2022/12/17 20:38:36;;;;;;;;;;;;;;;0.82;57.52;102789.22;5001074;28;124547;-66
2022/12/17 20:41:08;;;;;;;;;;;;;;;0.82;57.44;102794.44;5000732;28;122881;-65
2022/12/17 20:43:35;;;;;;;;;;;;;;;0.83;57.47;102796.22;5007027;28;114941;-66
2022/12/17 20:46:02;;;;;;;;;;;;;;;0.84;57.48;102792.75;4991790;28;114316;-66
2022/12/17 20:48:29;;;;;;;;;;;;;;;0.84;57.30;102790.13;4990354;28;124687;-66
2022/12/17 20:50:56;;;;;;;;;;;;;;;0.80;57.31;102780.47;4991597;28;124084;-66
2022/12/17 20:53:22;;;;;;;;;;;;;;;0.79;57.26;102783.91;4992553;28;114227;-66
2022/12/17 20:55:59;;;;;;;;;;;;;;;0.75;57.20;102771.63;5006316;28;113734;-66
2022/12/17 20:58:26;;;;;;;;;;;;;;;0.70;57.13;102778.47;5002762;28;124110;-65
2022/12/17 21:01:00;;;;;;;;;;;;;;;0.69;57.58;102766.25;5008355;28;126224;-66
2022/12/17 21:03:27;;;;;;;;;;;;;;;0.73;57.45;102768.09;4998146;28;113628;-65
2022/12/17 21:05:54;;;;;;;;;;;;;;;0.71;57.33;102764.56;4991021;28;113573;-66
2022/12/17 21:08:21;;;;;;;;;;;;;;;0.68;57.07;102759.28;4991099;28;123650;-66
2022/12/17 21:10:53;;;;;;;;;;;;;;;0.67;57.41;102773.16;4992851;28;123768;-66
2022/12/17 21:13:30;;;;;;;;;;;;;;;0.65;57.30;102769.63;5006897;28;114168;-65
2022/12/17 21:16:01;;;;;;;;;;;;;;;0.63;57.47;102760.91;5005409;28;113921;-66
2022/12/17 21:18:28;;;;;;;;;;;;;;;0.61;57.23;102767.78;5005638;28;125004;-66
2022/12/17 21:21:00;;;;;;;;;;;;;;;0.60;57.32;102760.78;5008221;28;123577;-66
2022/12/17 21:23:27;;;;;;;;;;;;;;;0.58;57.36;102764.25;5005638;28;115031;-66
2022/12/17 21:26:00;;;;;;;;;;;;;;;0.52;57.27;102761.47;5009508;28;115250;-66
2022/12/17 21:28:28;;;;;;;;;;;;;;;0.47;57.16;102765.69;5003525;28;124683;-66
2022/12/17 21:30:55;;;;;;;;;;;;;;;0.43;57.35;102766.41;5005244;28;123925;-66
2022/12/17 21:33:22;;;;;;;;;;;;;;;0.41;57.55;102768.09;5004299;28;113977;-66
2022/12/17 21:36:01;;;;;;;;;;;;;;;0.41;57.30;102768.09;5008909;28;114461;-66
2022/12/17 21:38:33;;;;;;;;;;;;;;;0.40;57.38;102779.38;5004274;28;125787;-66
2022/12/17 21:41:05;;;;;;;;;;;;;;;0.42;57.51;102780.31;5010497;28;123980;-66
2022/12/17 21:43:32;;;;;;;;;;;;;;;0.41;57.59;102781.13;5011236;28;114064;-66
2022/12/17 21:45:59;;;;;;;;;;;;;;;0.44;57.52;102786.44;5012396;28;113879;-65
2022/12/17 21:48:26;;;;;;;;;;;;;;;0.45;57.73;102793.41;5006819;28;124700;-66
2022/12/17 21:50:53;;;;;;;;;;;;;;;0.47;57.47;102790.84;5008522;28;126612;-65
2022/12/17 21:53:21;;;;;;;;;;;;;;;0.48;57.46;102798.72;5010069;28;114614;-66
2022/12/17 21:55:48;;;;;;;;;;;;;;;0.49;57.68;102790.06;5004144;28;114201;-66
2022/12/17 21:58:20;;;;;;;;;;;;;;;0.52;57.58;102805.78;5006408;28;124712;-66
2022/12/17 22:00:47;;;;;;;;;;;;;;;0.55;57.70;102811.09;5005809;28;124923;-66
2022/12/17 22:03:14;;;;;;;;;;;;;;;0.57;57.71;102817.22;5006949;28;114609;-66
2022/12/17 22:05:41;;;;;;;;;;;;;;;0.60;57.50;102818.16;4986221;28;114208;-66
2022/12/17 22:08:08;;;;;;;;;;;;;;;0.60;57.40;102819.03;4999278;28;123639;-66
2022/12/17 22:10:38;;;;;;;;;;;;;;;0.60;57.40;102823.38;5000628;28;124410;-66
2022/12/17 22:16:07;;;;;;;;;;;;;;;0.61;57.26;102814.72;4987705;28;114594;-66
2022/12/17 22:18:34;;;;;;;;;;;;;;;0.61;57.47;102812.13;5009075;28;124380;-66
2022/12/17 22:21:01;;;;;;;;;;;;;;;0.61;57.14;102814.72;5006865;28;124733;-68
2022/12/17 22:23:28;;;;;;;;;;;;;;;0.60;57.31;102812.94;5009418;28;114437;-66
2022/12/17 22:25:55;;;;;;;;;;;;;;;0.58;57.34;102816.41;5008046;28;114589;-66
2022/12/17 22:28:22;;;;;;;;;;;;;;;0.57;57.35;102806.81;4999798;28;124499;-66
2022/12/17 22:33:37;;;;;;;;;;;;;;;0.48;57.30;102803.94;5005580;28;115369;-66
2022/12/17 22:36:26;;;;;;;;;;;;;;;0.46;57.25;102804.75;5007689;28;114174;-66
2022/12/17 22:39:14;;;;;;;;;;;;;;;0.43;57.31;102800.31;5004616;28;124895;-66
2022/12/17 22:45:07;;;;;;;;;;;;;;;0.37;57.15;102815.78;5003301;28;115044;-66
2022/12/17 22:47:37;;;;;;;;;;;;;;;0.31;57.07;102806.06;5006462;28;112923;-66
2022/12/17 22:50:04;;;;;;;;;;;;;;;0.24;56.72;102813.66;5007293;28;125113;-66
2022/12/17 22:52:32;;;;;;;;;;;;;;;0.13;56.74;102811.63;5008104;28;124084;-66
2022/12/17 22:54:59;;;;;;;;;;;;;;;0.04;56.42;102816.56;5005435;28;114608;-65
2022/12/17 22:57:26;;;;;;;;;;;;;;;-0.03;56.65;102819.81;5006015;28;114568;-66
2022/12/17 23:00:06;;;;;;;;;;;;;;;-0.11;57.10;102816.09;5005761;28;124719;-66
2022/12/17 23:02:33;;;;;;;;;;;;;;;-0.15;57.01;102822.03;5003310;28;124111;-65
2022/12/17 23:05:00;;;;;;;;;;;;;;;-0.20;57.09;102816.69;4996299;28;115431;-66
2022/12/17 23:07:27;;;;;;;;;;;;;;;-0.22;57.37;102808.81;5009203;28;115157;-66
2022/12/17 23:09:57;;;;;;;;;;;;;;;-0.23;57.37;102807.06;5006485;28;124428;-66
2022/12/17 23:15:10;;;;;;;;;;;;;;;-0.28;57.01;102819.03;5007612;28;113673;-66
2022/12/17 23:17:37;;;;;;;;;;;;;;;-0.30;57.39;102809.41;5010919;28;113369;-66
2022/12/17 23:20:04;;;;;;;;;;;;;;;-0.31;56.95;102805.91;5010693;28;124648;-66
2022/12/17 23:22:31;;;;;;;;;;;;;;;-0.34;57.22;102791.91;5011646;28;124766;-66
2022/12/17 23:24:58;;;;;;;;;;;;;;;-0.36;57.35;102794.47;5008552;28;114246;-66
2022/12/17 23:27:24;;;;;;;;;;;;;;;-0.38;57.15;102796.16;5010937;28;113918;-66
2022/12/17 23:29:51;;;;;;;;;;;;;;;-0.40;57.27;102790.00;5010692;28;124345;-66
2022/12/17 23:32:18;;;;;;;;;;;;;;;-0.43;57.05;102784.72;5007408;28;125108;-65
2022/12/17 23:34:45;;;;;;;;;;;;;;;-0.46;57.35;102787.22;5011000;28;115238;-66
2022/12/17 23:37:12;;;;;;;;;;;;;;;-0.49;57.20;102797.53;5009978;28;114340;-66
2022/12/17 23:39:39;;;;;;;;;;;;;;;-0.54;56.89;102800.00;4989527;28;124728;-66
2022/12/17 23:42:06;;;;;;;;;;;;;;;-0.57;57.02;102799.00;5004284;28;123987;-66
2022/12/17 23:44:33;;;;;;;;;;;;;;;-0.63;57.00;102795.34;5007612;28;114362;-66
2022/12/17 23:46:59;;;;;;;;;;;;;;;-0.65;57.02;102791.81;5010490;28;114155;-66
2022/12/17 23:49:26;;;;;;;;;;;;;;;-0.67;56.93;102787.41;5010893;28;124346;-66
2022/12/17 23:51:53;;;;;;;;;;;;;;;-0.69;57.14;102784.75;5011725;28;124990;-66
2022/12/17 23:54:20;;;;;;;;;;;;;;;-0.70;56.94;102798.59;5011175;28;115206;-66
2022/12/17 23:56:47;;;;;;;;;;;;;;;-0.73;56.94;102798.50;5006952;28;114249;-66
2022/12/17 23:59:14;;;;;;;;;;;;;;;-0.76;56.87;102793.19;5021676;28;123153;-66
